createdAt,value
2022-12-03T00:01:04.876Z,91.55
2022-12-03T00:06:07.996Z,91.53
2022-12-03T00:11:10.928Z,91.26
2022-12-03T00:16:13.979Z,90.98
2022-12-03T00:21:16.895Z,91.13
2022-12-03T00:26:19.925Z,90.94
2022-12-03T00:31:23.660Z,91.04
2022-12-03T00:36:26.611Z,91.06
2022-12-03T00:41:29.312Z,90.91
2022-12-03T00:46:32.173Z,91.23
2022-12-03T00:51:35.916Z,91.61
2022-12-03T00:56:38.795Z,91.80
2022-12-03T01:01:41.577Z,91.86
2022-12-03T01:06:44.471Z,91.86
2022-12-03T01:11:47.433Z,92.19
2022-12-03T01:16:50.264Z,92.43
2022-12-03T01:21:53.080Z,92.80
2022-12-03T01:26:56.814Z,93.01
2022-12-03T01:32:17.569Z,93.33
2022-12-03T01:37:23.999Z,93.77
2022-12-03T01:42:35.171Z,94.30
2022-12-03T01:47:38.423Z,94.86
2022-12-03T01:52:42.205Z,95.36
2022-12-03T01:57:51.403Z,95.37
2022-12-03T02:02:58.918Z,95.38
2022-12-03T02:08:01.825Z,95.39
2022-12-03T02:13:08.715Z,95.52
2022-12-03T02:18:12.056Z,95.29
2022-12-03T02:23:29.769Z,95.22
2022-12-03T02:28:32.964Z,95.41
2022-12-03T02:33:35.794Z,95.24
2022-12-03T02:38:39.629Z,95.33
2022-12-03T02:43:42.372Z,95.28
2022-12-03T02:48:45.255Z,95.36
2022-12-03T02:53:50.765Z,95.38
2022-12-03T02:58:57.889Z,95.32
2022-12-03T03:04:02.740Z,95.42
2022-12-03T03:09:05.668Z,95.57
2022-12-03T03:14:08.551Z,95.53
2022-12-03T03:19:11.326Z,95.48
2022-12-03T03:24:14.152Z,95.13
2022-12-03T03:29:17.444Z,95.05
2022-12-03T03:34:20.604Z,95.09
2022-12-03T03:39:23.390Z,95.03
2022-12-03T03:44:26.815Z,95.15
2022-12-03T03:49:29.698Z,95.29
2022-12-03T03:54:32.960Z,95.35
2022-12-03T03:59:35.710Z,95.37
2022-12-03T04:04:38.534Z,95.43
2022-12-03T04:09:41.691Z,95.59
2022-12-03T04:14:44.466Z,95.69
2022-12-03T04:19:47.225Z,95.72
2022-12-03T04:24:49.974Z,95.46
2022-12-03T04:29:52.825Z,95.23
2022-12-03T04:35:14.381Z,95.31
2022-12-03T04:40:55.642Z,95.01
2022-12-03T04:45:59.026Z,95.05
2022-12-03T04:51:01.781Z,95.39
2022-12-03T04:56:04.706Z,95.50
2022-12-03T05:01:07.725Z,95.48
2022-12-03T05:06:10.600Z,95.57
2022-12-03T05:11:13.405Z,95.77
2022-12-03T05:16:16.231Z,95.95
2022-12-03T05:21:19.110Z,96.09
2022-12-03T05:26:22.393Z,96.19
2022-12-03T05:31:25.272Z,96.19
2022-12-03T05:36:28.642Z,96.30
2022-12-03T05:41:50.273Z,96.24
2022-12-03T05:46:53.086Z,96.16
2022-12-03T05:51:58.639Z,96.21
2022-12-03T05:57:01.861Z,96.41
2022-12-03T06:02:04.732Z,96.41
2022-12-03T06:07:13.615Z,96.37
2022-12-03T06:12:17.229Z,96.28
2022-12-03T06:17:20.033Z,95.82
2022-12-03T06:22:23.153Z,95.67
2022-12-03T06:27:26.044Z,95.68
2022-12-03T06:32:28.833Z,95.47
2022-12-03T06:37:31.650Z,95.41
2022-12-03T06:42:34.337Z,95.53
2022-12-03T06:47:37.753Z,95.67
2022-12-03T06:52:40.567Z,95.62
2022-12-03T06:57:43.497Z,94.61
2022-12-03T07:02:46.309Z,94.95
2022-12-03T07:07:52.246Z,94.87
2022-12-03T07:12:55.253Z,94.85
2022-12-03T07:17:58.159Z,94.72
2022-12-03T07:23:00.980Z,94.02
2022-12-03T07:28:03.919Z,93.71
2022-12-03T07:33:06.667Z,93.78
2022-12-03T07:38:09.399Z,93.80
2022-12-03T07:43:12.106Z,94.08
2022-12-03T07:48:14.992Z,94.53
2022-12-03T07:53:18.069Z,94.32
2022-12-03T07:58:20.847Z,94.46
2022-12-03T08:03:23.874Z,94.06
2022-12-03T08:08:26.606Z,93.72
2022-12-03T08:13:29.449Z,93.86
2022-12-03T08:18:33.110Z,93.41
2022-12-03T08:23:36.641Z,93.57
2022-12-03T08:28:39.532Z,93.51
2022-12-03T08:33:42.343Z,93.25
2022-12-03T08:38:50.590Z,93.25
2022-12-03T08:43:53.265Z,93.36
2022-12-03T08:48:56.062Z,93.38
2022-12-03T08:54:04.593Z,93.21
2022-12-03T08:59:29.670Z,92.99
2022-12-03T09:04:46.278Z,93.15
2022-12-03T09:09:49.060Z,92.55
2022-12-03T09:14:52.120Z,92.30
2022-12-03T09:19:55.370Z,91.95
2022-12-03T09:24:58.273Z,92.12
2022-12-03T09:30:01.179Z,92.50
2022-12-03T09:35:04.991Z,93.05
2022-12-03T09:40:09.352Z,93.25
2022-12-03T09:45:14.759Z,93.72
2022-12-03T09:50:23.568Z,93.50
2022-12-03T09:55:28.747Z,92.78
2022-12-03T10:00:32.199Z,92.69
2022-12-03T10:05:35.229Z,92.00
2022-12-03T10:10:41.104Z,91.22
2022-12-03T10:15:43.925Z,91.46
2022-12-03T10:20:47.216Z,91.49
2022-12-03T10:25:56.265Z,91.84
2022-12-03T10:31:00.815Z,92.03
2022-12-03T10:36:25.317Z,91.58
2022-12-03T10:41:29.246Z,90.22
2022-12-03T10:46:32.334Z,90.44
2022-12-03T10:51:35.741Z,89.71
2022-12-03T10:56:38.574Z,90.03
2022-12-03T11:01:42.049Z,90.39
2022-12-03T11:06:45.200Z,89.83
2022-12-03T11:11:49.437Z,89.78
2022-12-03T11:16:52.137Z,89.87
2022-12-03T11:22:05.024Z,90.39
2022-12-03T11:27:17.900Z,91.24
2022-12-03T11:32:39.555Z,91.65
2022-12-03T11:37:42.665Z,91.66
2022-12-03T11:42:47.455Z,91.73
2022-12-03T11:47:59.738Z,92.21
2022-12-03T11:53:23.866Z,92.63
2022-12-03T11:58:31.245Z,92.48
2022-12-03T12:03:44.308Z,92.42
2022-12-03T12:08:57.797Z,92.56
2022-12-03T12:14:07.608Z,92.88
2022-12-03T12:19:43.371Z,92.76
2022-12-03T12:24:48.342Z,92.39
2022-12-03T12:30:14.109Z,92.51
2022-12-03T12:35:22.905Z,92.53
2022-12-03T12:40:29.069Z,92.47
2022-12-03T12:45:36.411Z,92.60
2022-12-03T12:50:41.017Z,92.37
2022-12-03T12:55:43.861Z,92.25
2022-12-03T13:01:19.488Z,92.32
2022-12-03T13:06:31.356Z,91.74
2022-12-03T13:11:42.085Z,89.53
2022-12-03T13:16:47.260Z,87.71
2022-12-03T13:21:52.770Z,87.53
2022-12-03T13:26:56.283Z,87.94
2022-12-03T13:32:01.974Z,86.29
2022-12-03T13:37:14.260Z,87.33
2022-12-03T13:42:41.648Z,87.51
2022-12-03T13:47:49.662Z,88.48
2022-12-03T13:52:53.218Z,89.39
2022-12-03T13:57:56.667Z,90.20
2022-12-03T14:02:59.502Z,90.71
2022-12-03T14:08:02.532Z,91.25
2022-12-03T14:13:05.720Z,91.69
2022-12-03T14:18:08.441Z,92.24
2022-12-03T14:23:11.224Z,92.65
2022-12-03T14:28:14.024Z,93.09
2022-12-03T14:33:16.824Z,93.39
2022-12-03T14:38:20.158Z,93.76
2022-12-03T14:43:23.072Z,94.38
2022-12-03T14:48:27.705Z,94.50
2022-12-03T14:53:30.413Z,94.41
2022-12-03T14:58:34.415Z,94.66
2022-12-03T15:03:37.102Z,94.84
2022-12-03T15:08:40.021Z,94.98
2022-12-03T15:13:42.823Z,95.42
2022-12-03T15:18:45.587Z,95.78
2022-12-03T15:23:48.423Z,96.22
2022-12-03T15:28:51.429Z,96.36
2022-12-03T15:33:54.123Z,96.52
2022-12-03T15:38:57.755Z,96.76
2022-12-03T15:44:02.172Z,97.07
2022-12-03T15:49:04.992Z,97.22
2022-12-03T15:54:07.735Z,97.31
2022-12-03T15:59:10.596Z,97.30
2022-12-03T16:04:13.325Z,97.26
2022-12-03T16:09:16.058Z,97.37
2022-12-03T16:14:20.844Z,97.23
2022-12-03T16:19:23.569Z,97.14
2022-12-03T16:24:26.452Z,97.30
2022-12-03T16:29:29.412Z,97.32
2022-12-03T16:34:32.200Z,97.55
2022-12-03T16:39:35.021Z,97.86
2022-12-03T16:44:58.236Z,98.02
2022-12-03T16:50:03.086Z,98.51
2022-12-03T16:55:06.756Z,98.67
2022-12-03T17:00:10.557Z,98.86
2022-12-03T17:05:13.329Z,99.29
2022-12-03T17:10:16.455Z,99.43
2022-12-03T17:15:19.665Z,99.59
2022-12-03T17:20:22.557Z,99.87
2022-12-03T17:25:25.693Z,100.00
2022-12-03T17:30:28.409Z,100.00
2022-12-03T17:35:31.576Z,100.00
2022-12-03T17:40:34.293Z,100.00
2022-12-03T17:45:37.084Z,100.00
2022-12-03T17:50:39.983Z,100.00
2022-12-03T17:55:45.054Z,100.00
2022-12-03T18:00:48.657Z,100.00
2022-12-03T18:05:51.384Z,100.00
2022-12-03T18:10:54.466Z,100.00
2022-12-03T18:15:57.827Z,100.00
2022-12-03T18:21:04.690Z,100.00
2022-12-03T18:26:08.057Z,100.00
2022-12-03T18:31:15.277Z,100.00
2022-12-03T18:36:24.849Z,100.00
2022-12-03T18:41:28.103Z,100.00
2022-12-03T18:46:52.297Z,100.00
2022-12-03T18:51:59.032Z,100.00
2022-12-03T18:57:02.486Z,100.00
2022-12-03T19:02:06.905Z,100.00
2022-12-03T19:07:11.521Z,100.00
2022-12-03T19:12:14.862Z,100.00
2022-12-03T19:17:17.991Z,100.00
2022-12-03T19:22:21.396Z,100.00
2022-12-03T19:27:24.212Z,100.00
2022-12-03T19:32:26.922Z,100.00
2022-12-03T19:37:32.881Z,100.00
2022-12-03T19:42:35.895Z,100.00
2022-12-03T19:47:38.698Z,100.00
2022-12-03T19:52:41.498Z,100.00
2022-12-03T19:57:44.223Z,100.00
2022-12-03T20:02:49.985Z,100.00
2022-12-03T20:07:53.019Z,100.00
2022-12-03T20:12:55.896Z,100.00
2022-12-03T20:17:58.678Z,100.00
2022-12-03T20:23:01.744Z,100.00
2022-12-03T20:28:04.588Z,100.00
2022-12-03T20:33:07.364Z,100.00
2022-12-03T20:38:10.072Z,100.00
2022-12-03T20:43:12.907Z,100.00
2022-12-03T20:48:16.109Z,100.00
2022-12-03T20:53:24.773Z,100.00
2022-12-03T20:58:29.719Z,100.00
2022-12-03T21:03:32.492Z,100.00
2022-12-03T21:08:41.603Z,100.00
2022-12-03T21:13:45.864Z,100.00
2022-12-03T21:18:49.014Z,100.00
2022-12-03T21:23:52.847Z,100.00
2022-12-03T21:28:56.338Z,100.00
2022-12-03T21:33:59.243Z,100.00
2022-12-03T21:39:02.037Z,100.00
2022-12-03T21:44:04.862Z,100.00
2022-12-03T21:49:07.652Z,100.00
2022-12-03T21:54:10.561Z,100.00
2022-12-03T21:59:13.299Z,100.00
2022-12-03T22:04:16.026Z,100.00
2022-12-03T22:09:23.237Z,100.00
2022-12-03T22:14:30.192Z,100.00
2022-12-03T22:19:33.590Z,100.00
2022-12-03T22:24:36.367Z,100.00
2022-12-03T22:29:39.675Z,100.00
2022-12-03T22:34:42.482Z,100.00
2022-12-03T22:39:45.438Z,100.00
2022-12-03T22:44:48.186Z,100.00
2022-12-03T22:49:50.930Z,100.00
2022-12-03T22:54:53.701Z,100.00
2022-12-03T22:59:56.727Z,100.00
2022-12-03T23:04:59.958Z,100.00
2022-12-03T23:10:02.708Z,100.00
2022-12-03T23:15:06.470Z,100.00
2022-12-03T23:20:10.163Z,100.00
2022-12-03T23:25:13.074Z,100.00
2022-12-03T23:30:16.867Z,100.00
2022-12-03T23:35:19.583Z,100.00
2022-12-03T23:40:22.487Z,100.00
2022-12-03T23:45:25.311Z,100.00
2022-12-03T23:50:28.605Z,100.00
2022-12-03T23:55:31.357Z,100.00
